Terminal Aerodrome Forecast
Issued by NWS

Home | Current Version | Previous Version | Text Only | Print | Product List | Glossary On
Versions: 1 2 3 4 5 6 7 8 9 10 11 12 13 14 15 16 17 18
000
FTUS44 KSJT 282320
TAFSOA
TAF
KSOA 282320Z 2900/2924 16011KT P6SM VCTS SCT060CB
     FM290300 14008KT P6SM SCT050 BKN100
     FM290800 16007KT 5SM BR BKN012
     FM291600 17011KT P6SM BKN025
     FM291800 17011KT P6SM SCT030=

USA.gov is the U.S. government's official web portal to all federal, state and local government web resources and services.